Saline, MI (48176)

7:41 AM EDT on March 23, 2017 (GMT -0400)
Covington Drive | | Change Station

Elev 810 ft 42.15 °N, 83.74 °W | Updated 3 minutes ago

Clear
Clear
18.0 °F
Feels Like 18 °F
N
0.0
Wind Variable Wind from West
Gusts 0.0 mph

Today
High -- | Low -- °F
--% Chance of Precip.
Yesterday
High -- | Low -- °F
Precip. -- in
Pressure 30.56 in
Visibility 10.0 miles
Clouds Clear
Windchill 18 °F
Dew Point 9 °F
Humidity 68%
Rainfall 0.00 in
Snow Depth Not available.
7:32 AM 7:51 PM
Waning Crescent, 24% visible
METAR KARB 231053Z AUTO 00000KT 10SM CLR M07/M09 A3052 RMK AO2 SLP347 T10671089
Pressure 30.56 in
Visibility 10.0 miles
Clouds Clear
Windchill 18 °F
Dew Point 9 °F
Humidity 68%
Rainfall 0.00 in
Snow Depth Not available.
7:32 AM 7:51 PM
Waning Crescent, 24% visible
METAR KARB 231053Z AUTO 00000KT 10SM CLR M07/M09 A3052 RMK AO2 SLP347 T10671089

Get Severe Weather Alerts

Thanks for signing up!

Be on the lookout for a verification email in your inbox.

You'll start receiving the daily forecast at 8 AM.

×

10-Day Weather Forecast

Almanac

Astronomy

Mar. 23, 2017 Rise Set
Actual Time
Civil Twilight
Nautical Twilight
Astronomical Twilight
Moon
Length of Visible Light
Length of Day
Tomorrow will be .
, % of the Moon is Illuminated

Today's Extremes

State Highs State Lows

Community

WunderPhotos

Upload Photos

1,962,540 photos uploaded!

WunderBlog® & News

Nearby

Air Quality

  Air Quality AQ Index Pollutant
Not available.

Snow Depth

Station Depth Elevation

Earthquake Activity

City Distance Mag. Time & Date
Minimum magnitude displayed is 2.5.

Earthquake Activity

City Distance Mag. Time & Date
Minimum magnitude displayed is 2.5.

Coastal Water Temperatures

Place Temperature

Stations

Nearby Weather Stations

Station Location Temp. Windchill Dew Point Humidity Wind Precip. Elev Updated Type
                   

Watches & Warnings

There are currently no watches in effect.